sensor_id;sensor_type;location;lat;lon;timestamp;temperature;humidity
1455;DHT22;721;48.168;12.818;2023-04-24T00:00:37;11.70;73.30
1455;DHT22;721;48.168;12.818;2023-04-24T00:03:06;12.00;73.60
1455;DHT22;721;48.168;12.818;2023-04-24T00:05:33;11.80;73.40
1455;DHT22;721;48.168;12.818;2023-04-24T00:08:00;12.00;72.50
1455;DHT22;721;48.168;12.818;2023-04-24T00:10:29;12.10;72.40
1455;DHT22;721;48.168;12.818;2023-04-24T00:12:56;11.70;72.40
1455;DHT22;721;48.168;12.818;2023-04-24T00:15:23;11.70;72.40
1455;DHT22;721;48.168;12.818;2023-04-24T00:17:49;11.70;71.90
1455;DHT22;721;48.168;12.818;2023-04-24T00:20:17;11.70;70.70
1455;DHT22;721;48.168;12.818;2023-04-24T00:22:44;11.70;71.50
1455;DHT22;721;48.168;12.818;2023-04-24T00:25:11;11.80;70.50
1455;DHT22;721;48.168;12.818;2023-04-24T00:27:39;11.80;69.20
1455;DHT22;721;48.168;12.818;2023-04-24T00:30:07;11.90;68.80
1455;DHT22;721;48.168;12.818;2023-04-24T00:32:34;12.00;68.60
1455;DHT22;721;48.168;12.818;2023-04-24T00:35:00;12.30;67.60
1455;DHT22;721;48.168;12.818;2023-04-24T00:37:27;12.40;67.00
1455;DHT22;721;48.168;12.818;2023-04-24T00:39:54;12.20;65.60
1455;DHT22;721;48.168;12.818;2023-04-24T00:42:21;12.20;64.30
1455;DHT22;721;48.168;12.818;2023-04-24T00:44:49;12.30;63.80
1455;DHT22;721;48.168;12.818;2023-04-24T00:47:16;12.50;63.40
1455;DHT22;721;48.168;12.818;2023-04-24T00:49:43;12.50;61.50
1455;DHT22;721;48.168;12.818;2023-04-24T00:52:10;12.50;61.30
1455;DHT22;721;48.168;12.818;2023-04-24T00:54:38;12.50;60.80
1455;DHT22;721;48.168;12.818;2023-04-24T00:57:05;12.40;61.30
1455;DHT22;721;48.168;12.818;2023-04-24T00:59:32;12.40;62.20
1455;DHT22;721;48.168;12.818;2023-04-24T01:02:00;12.40;62.10
1455;DHT22;721;48.168;12.818;2023-04-24T01:04:27;12.30;64.90
1455;DHT22;721;48.168;12.818;2023-04-24T01:06:54;12.40;66.30
1455;DHT22;721;48.168;12.818;2023-04-24T01:09:23;12.30;66.30
1455;DHT22;721;48.168;12.818;2023-04-24T01:11:50;12.30;65.70
1455;DHT22;721;48.168;12.818;2023-04-24T01:14:17;12.30;64.70
1455;DHT22;721;48.168;12.818;2023-04-24T01:16:44;12.20;65.40
1455;DHT22;721;48.168;12.818;2023-04-24T01:19:13;12.10;65.30
1455;DHT22;721;48.168;12.818;2023-04-24T01:21:41;12.00;65.20
1455;DHT22;721;48.168;12.818;2023-04-24T01:24:11;12.00;65.00
1455;DHT22;721;48.168;12.818;2023-04-24T01:26:38;11.90;65.70
1455;DHT22;721;48.168;12.818;2023-04-24T01:29:04;11.90;65.10
1455;DHT22;721;48.168;12.818;2023-04-24T01:31:32;11.80;63.40
1455;DHT22;721;48.168;12.818;2023-04-24T01:33:59;11.70;65.20
1455;DHT22;721;48.168;12.818;2023-04-24T01:36:27;11.60;66.70
1455;DHT22;721;48.168;12.818;2023-04-24T01:38:55;11.60;66.70
1455;DHT22;721;48.168;12.818;2023-04-24T01:41:23;11.40;67.50
1455;DHT22;721;48.168;12.818;2023-04-24T01:43:51;11.40;69.80
1455;DHT22;721;48.168;12.818;2023-04-24T01:46:18;11.70;68.10
1455;DHT22;721;48.168;12.818;2023-04-24T01:48:45;11.40;67.60
1455;DHT22;721;48.168;12.818;2023-04-24T01:51:12;11.40;67.80
1455;DHT22;721;48.168;12.818;2023-04-24T01:53:39;11.30;68.80
1455;DHT22;721;48.168;12.818;2023-04-24T01:56:06;11.40;68.90
1455;DHT22;721;48.168;12.818;2023-04-24T01:58:35;11.30;68.00
1455;DHT22;721;48.168;12.818;2023-04-24T02:01:01;11.30;68.30
1455;DHT22;721;48.168;12.818;2023-04-24T02:03:29;11.30;68.80
1455;DHT22;721;48.168;12.818;2023-04-24T02:05:55;11.30;68.80
1455;DHT22;721;48.168;12.818;2023-04-24T02:08:22;11.30;67.80
1455;DHT22;721;48.168;12.818;2023-04-24T02:10:49;11.40;67.80
1455;DHT22;721;48.168;12.818;2023-04-24T02:13:16;11.20;69.90
1455;DHT22;721;48.168;12.818;2023-04-24T02:15:44;11.40;70.50
1455;DHT22;721;48.168;12.818;2023-04-24T02:18:11;11.20;69.70
1455;DHT22;721;48.168;12.818;2023-04-24T02:20:38;11.20;70.00
1455;DHT22;721;48.168;12.818;2023-04-24T02:23:05;11.20;70.00
1455;DHT22;721;48.168;12.818;2023-04-24T02:25:31;11.30;68.80
1455;DHT22;721;48.168;12.818;2023-04-24T02:27:59;11.30;68.20
1455;DHT22;721;48.168;12.818;2023-04-24T02:30:26;11.40;67.30
1455;DHT22;721;48.168;12.818;2023-04-24T02:32:54;11.50;68.20
1455;DHT22;721;48.168;12.818;2023-04-24T02:35:21;11.30;66.90
1455;DHT22;721;48.168;12.818;2023-04-24T02:37:48;11.40;65.90
1455;DHT22;721;48.168;12.818;2023-04-24T02:40:15;11.40;66.50
1455;DHT22;721;48.168;12.818;2023-04-24T02:42:42;11.60;65.30
1455;DHT22;721;48.168;12.818;2023-04-24T02:45:10;11.80;64.90
1455;DHT22;721;48.168;12.818;2023-04-24T02:47:37;11.70;62.80
1455;DHT22;721;48.168;12.818;2023-04-24T02:50:07;11.70;61.80
1455;DHT22;721;48.168;12.818;2023-04-24T02:52:33;11.80;60.50
1455;DHT22;721;48.168;12.818;2023-04-24T02:55:00;12.10;61.20
1455;DHT22;721;48.168;12.818;2023-04-24T02:57:27;11.80;60.80
1455;DHT22;721;48.168;12.818;2023-04-24T02:59:54;11.80;60.10
1455;DHT22;721;48.168;12.818;2023-04-24T03:02:21;11.80;60.00
1455;DHT22;721;48.168;12.818;2023-04-24T03:04:47;11.80;61.80
1455;DHT22;721;48.168;12.818;2023-04-24T03:07:15;11.90;60.80
1455;DHT22;721;48.168;12.818;2023-04-24T03:09:42;11.80;59.90
1455;DHT22;721;48.168;12.818;2023-04-24T03:12:09;11.80;60.70
1455;DHT22;721;48.168;12.818;2023-04-24T03:14:36;11.70;60.70
1455;DHT22;721;48.168;12.818;2023-04-24T03:17:03;11.70;61.70
1455;DHT22;721;48.168;12.818;2023-04-24T03:19:30;11.60;61.90
1455;DHT22;721;48.168;12.818;2023-04-24T03:21:56;11.60;62.60
1455;DHT22;721;48.168;12.818;2023-04-24T03:24:25;11.50;63.80
1455;DHT22;721;48.168;12.818;2023-04-24T03:26:53;11.70;63.50
1455;DHT22;721;48.168;12.818;2023-04-24T03:29:21;11.80;62.30
1455;DHT22;721;48.168;12.818;2023-04-24T03:31:48;11.40;64.20
1455;DHT22;721;48.168;12.818;2023-04-24T03:34:15;11.30;64.70
1455;DHT22;721;48.168;12.818;2023-04-24T03:36:41;11.30;65.40
1455;DHT22;721;48.168;12.818;2023-04-24T03:39:08;11.30;64.60
1455;DHT22;721;48.168;12.818;2023-04-24T03:41:37;11.30;64.30
1455;DHT22;721;48.168;12.818;2023-04-24T03:44:03;11.30;64.20
1455;DHT22;721;48.168;12.818;2023-04-24T03:46:30;11.40;63.60
1455;DHT22;721;48.168;12.818;2023-04-24T03:48:57;11.40;62.60
1455;DHT22;721;48.168;12.818;2023-04-24T03:51:24;11.40;62.20
1455;DHT22;721;48.168;12.818;2023-04-24T03:53:53;11.70;61.10
1455;DHT22;721;48.168;12.818;2023-04-24T03:56:20;11.40;61.00
1455;DHT22;721;48.168;12.818;2023-04-24T03:58:48;11.40;61.80
1455;DHT22;721;48.168;12.818;2023-04-24T04:01:15;11.70;61.20
1455;DHT22;721;48.168;12.818;2023-04-24T04:03:42;11.40;60.60
1455;DHT22;721;48.168;12.818;2023-04-24T04:06:09;11.40;62.50
1455;DHT22;721;48.168;12.818;2023-04-24T04:08:38;11.40;62.50
1455;DHT22;721;48.168;12.818;2023-04-24T04:11:05;11.40;60.90
1455;DHT22;721;48.168;12.818;2023-04-24T04:13:31;11.40;60.40
1455;DHT22;721;48.168;12.818;2023-04-24T04:16:00;11.40;60.40
1455;DHT22;721;48.168;12.818;2023-04-24T04:18:26;11.40;61.40
1455;DHT22;721;48.168;12.818;2023-04-24T04:20:53;11.40;60.40
1455;DHT22;721;48.168;12.818;2023-04-24T04:23:20;11.50;59.50
1455;DHT22;721;48.168;12.818;2023-04-24T04:25:47;11.50;59.10
1455;DHT22;721;48.168;12.818;2023-04-24T04:28:14;11.50;58.60
1455;DHT22;721;48.168;12.818;2023-04-24T04:30:40;11.50;59.80
1455;DHT22;721;48.168;12.818;2023-04-24T04:33:09;11.40;60.00
1455;DHT22;721;48.168;12.818;2023-04-24T04:35:36;11.50;62.10
1455;DHT22;721;48.168;12.818;2023-04-24T04:38:03;11.40;61.70
1455;DHT22;721;48.168;12.818;2023-04-24T04:40:30;11.40;60.40
1455;DHT22;721;48.168;12.818;2023-04-24T04:42:57;11.30;62.40
1455;DHT22;721;48.168;12.818;2023-04-24T04:45:23;11.30;62.90
1455;DHT22;721;48.168;12.818;2023-04-24T04:47:52;11.40;61.20
1455;DHT22;721;48.168;12.818;2023-04-24T04:50:22;11.30;60.20
1455;DHT22;721;48.168;12.818;2023-04-24T04:52:48;11.30;59.60
1455;DHT22;721;48.168;12.818;2023-04-24T04:55:15;11.30;58.60
1455;DHT22;721;48.168;12.818;2023-04-24T04:57:42;11.30;60.30
1455;DHT22;721;48.168;12.818;2023-04-24T05:00:10;11.30;60.40
1455;DHT22;721;48.168;12.818;2023-04-24T05:02:37;11.20;60.00
1455;DHT22;721;48.168;12.818;2023-04-24T05:05:05;11.10;61.40
1455;DHT22;721;48.168;12.818;2023-04-24T05:07:33;11.00;62.40
1455;DHT22;721;48.168;12.818;2023-04-24T05:10:00;11.00;61.20
1455;DHT22;721;48.168;12.818;2023-04-24T05:12:27;10.90;61.00
1455;DHT22;721;48.168;12.818;2023-04-24T05:14:54;10.90;64.10
1455;DHT22;721;48.168;12.818;2023-04-24T05:17:20;10.90;65.50
1455;DHT22;721;48.168;12.818;2023-04-24T05:19:47;10.80;65.40
1455;DHT22;721;48.168;12.818;2023-04-24T05:22:14;10.80;65.10
1455;DHT22;721;48.168;12.818;2023-04-24T05:24:44;10.70;63.60
1455;DHT22;721;48.168;12.818;2023-04-24T05:27:11;10.70;64.00
1455;DHT22;721;48.168;12.818;2023-04-24T05:29:38;10.70;64.40
1455;DHT22;721;48.168;12.818;2023-04-24T05:32:05;10.60;64.30
1455;DHT22;721;48.168;12.818;2023-04-24T05:34:32;10.50;65.20
1455;DHT22;721;48.168;12.818;2023-04-24T05:36:59;10.50;66.20
1455;DHT22;721;48.168;12.818;2023-04-24T05:39:26;10.50;65.90
1455;DHT22;721;48.168;12.818;2023-04-24T05:41:54;10.50;66.00
1455;DHT22;721;48.168;12.818;2023-04-24T05:44:23;10.40;68.00
1455;DHT22;721;48.168;12.818;2023-04-24T05:46:50;10.40;68.00
1455;DHT22;721;48.168;12.818;2023-04-24T05:49:17;10.30;68.30
1455;DHT22;721;48.168;12.818;2023-04-24T05:51:43;10.30;69.60
1455;DHT22;721;48.168;12.818;2023-04-24T05:54:10;10.30;68.60
1455;DHT22;721;48.168;12.818;2023-04-24T05:56:37;10.30;69.60
1455;DHT22;721;48.168;12.818;2023-04-24T05:59:05;10.20;69.90
1455;DHT22;721;48.168;12.818;2023-04-24T06:01:33;10.20;70.40
1455;DHT22;721;48.168;12.818;2023-04-24T06:03:59;10.30;71.80
1455;DHT22;721;48.168;12.818;2023-04-24T06:06:26;10.40;72.10
1455;DHT22;721;48.168;12.818;2023-04-24T06:08:54;10.40;72.10
1455;DHT22;721;48.168;12.818;2023-04-24T06:11:21;10.50;70.30
1455;DHT22;721;48.168;12.818;2023-04-24T06:13:48;10.50;68.70
1455;DHT22;721;48.168;12.818;2023-04-24T06:16:17;10.60;69.20
1455;DHT22;721;48.168;12.818;2023-04-24T06:18:43;10.50;69.90
1455;DHT22;721;48.168;12.818;2023-04-24T06:21:12;10.50;69.40
1455;DHT22;721;48.168;12.818;2023-04-24T06:23:39;10.50;71.70
1455;DHT22;721;48.168;12.818;2023-04-24T06:26:06;10.50;72.20
1455;DHT22;721;48.168;12.818;2023-04-24T06:28:33;10.50;72.20
1455;DHT22;721;48.168;12.818;2023-04-24T06:31:00;10.90;71.70
1455;DHT22;721;48.168;12.818;2023-04-24T06:33:28;10.60;72.10
1455;DHT22;721;48.168;12.818;2023-04-24T06:35:55;10.60;72.30
1455;DHT22;721;48.168;12.818;2023-04-24T06:38:22;10.60;71.80
1455;DHT22;721;48.168;12.818;2023-04-24T06:40:49;10.70;71.50
1455;DHT22;721;48.168;12.818;2023-04-24T06:43:16;10.70;71.10
1455;DHT22;721;48.168;12.818;2023-04-24T06:45:43;10.70;72.40
1455;DHT22;721;48.168;12.818;2023-04-24T06:48:10;10.80;71.30
1455;DHT22;721;48.168;12.818;2023-04-24T06:50:38;11.00;69.50
1455;DHT22;721;48.168;12.818;2023-04-24T06:53:05;11.00;67.90
1455;DHT22;721;48.168;12.818;2023-04-24T06:55:32;11.00;66.90
1455;DHT22;721;48.168;12.818;2023-04-24T06:57:59;11.10;68.10
1455;DHT22;721;48.168;12.818;2023-04-24T07:00:26;11.10;66.30
1455;DHT22;721;48.168;12.818;2023-04-24T07:02:52;11.10;66.90
1455;DHT22;721;48.168;12.818;2023-04-24T07:05:19;11.10;65.90
1455;DHT22;721;48.168;12.818;2023-04-24T07:07:47;11.00;67.40
1455;DHT22;721;48.168;12.818;2023-04-24T07:10:15;11.00;68.10
1455;DHT22;721;48.168;12.818;2023-04-24T07:12:42;11.00;68.50
1455;DHT22;721;48.168;12.818;2023-04-24T07:15:09;11.10;66.50
1455;DHT22;721;48.168;12.818;2023-04-24T07:17:37;11.00;64.90
1455;DHT22;721;48.168;12.818;2023-04-24T07:20:09;11.00;66.00
1455;DHT22;721;48.168;12.818;2023-04-24T07:22:36;11.00;65.90
1455;DHT22;721;48.168;12.818;2023-04-24T07:25:05;11.00;65.60
1455;DHT22;721;48.168;12.818;2023-04-24T07:27:33;11.10;66.50
1455;DHT22;721;48.168;12.818;2023-04-24T07:30:00;11.10;66.10
1455;DHT22;721;48.168;12.818;2023-04-24T07:32:27;11.10;64.40
1455;DHT22;721;48.168;12.818;2023-04-24T07:34:53;11.00;66.00
1455;DHT22;721;48.168;12.818;2023-04-24T07:37:20;11.40;69.20
1455;DHT22;721;48.168;12.818;2023-04-24T07:39:47;11.10;66.70
1455;DHT22;721;48.168;12.818;2023-04-24T07:42:15;11.20;66.40
1455;DHT22;721;48.168;12.818;2023-04-24T07:44:42;11.20;65.10
1455;DHT22;721;48.168;12.818;2023-04-24T07:47:09;11.20;66.00
1455;DHT22;721;48.168;12.818;2023-04-24T07:49:36;11.30;66.90
1455;DHT22;721;48.168;12.818;2023-04-24T07:52:03;11.40;66.20
1455;DHT22;721;48.168;12.818;2023-04-24T07:54:30;11.40;64.90
1455;DHT22;721;48.168;12.818;2023-04-24T07:56:57;11.40;62.00
1455;DHT22;721;48.168;12.818;2023-04-24T07:59:25;11.70;61.40
1455;DHT22;721;48.168;12.818;2023-04-24T08:01:52;11.50;64.70
1455;DHT22;721;48.168;12.818;2023-04-24T08:04:19;11.70;66.30
1455;DHT22;721;48.168;12.818;2023-04-24T08:06:47;11.50;67.30
1455;DHT22;721;48.168;12.818;2023-04-24T08:09:14;11.60;69.30
1455;DHT22;721;48.168;12.818;2023-04-24T08:11:41;11.60;65.00
1455;DHT22;721;48.168;12.818;2023-04-24T08:14:08;11.70;63.30
1455;DHT22;721;48.168;12.818;2023-04-24T08:16:36;11.90;63.90
1455;DHT22;721;48.168;12.818;2023-04-24T08:19:03;11.90;60.80
1455;DHT22;721;48.168;12.818;2023-04-24T08:21:30;11.90;60.80
1455;DHT22;721;48.168;12.818;2023-04-24T08:23:57;11.90;60.80
1455;DHT22;721;48.168;12.818;2023-04-24T08:26:24;11.90;49.50
1455;DHT22;721;48.168;12.818;2023-04-24T08:28:51;11.90;50.00
1455;DHT22;721;48.168;12.818;2023-04-24T08:31:17;11.80;53.50
1455;DHT22;721;48.168;12.818;2023-04-24T08:33:46;11.80;55.70
1455;DHT22;721;48.168;12.818;2023-04-24T08:36:13;11.90;55.80
1455;DHT22;721;48.168;12.818;2023-04-24T08:38:39;12.00;51.70
1455;DHT22;721;48.168;12.818;2023-04-24T08:41:07;11.90;57.90
1455;DHT22;721;48.168;12.818;2023-04-24T08:43:35;11.70;43.00
1455;DHT22;721;48.168;12.818;2023-04-24T08:46:04;11.70;48.20
1455;DHT22;721;48.168;12.818;2023-04-24T08:48:31;11.70;54.90
1455;DHT22;721;48.168;12.818;2023-04-24T08:50:59;11.80;59.70
1455;DHT22;721;48.168;12.818;2023-04-24T08:53:27;11.80;58.60
1455;DHT22;721;48.168;12.818;2023-04-24T08:55:55;11.80;55.70
1455;DHT22;721;48.168;12.818;2023-04-24T08:58:23;11.80;56.70
1455;DHT22;721;48.168;12.818;2023-04-24T09:00:51;11.90;54.00
1455;DHT22;721;48.168;12.818;2023-04-24T09:03:19;12.00;57.10
1455;DHT22;721;48.168;12.818;2023-04-24T09:05:48;11.90;52.30
1455;DHT22;721;48.168;12.818;2023-04-24T09:08:18;12.00;54.60
1455;DHT22;721;48.168;12.818;2023-04-24T09:10:45;11.90;48.40
1455;DHT22;721;48.168;12.818;2023-04-24T09:13:13;11.90;51.10
1455;DHT22;721;48.168;12.818;2023-04-24T09:15:41;12.00;49.10
1455;DHT22;721;48.168;12.818;2023-04-24T09:18:08;12.10;53.50
1455;DHT22;721;48.168;12.818;2023-04-24T09:20:34;12.10;47.20
1455;DHT22;721;48.168;12.818;2023-04-24T09:23:02;12.00;48.70
1455;DHT22;721;48.168;12.818;2023-04-24T09:25:33;12.10;46.50
1455;DHT22;721;48.168;12.818;2023-04-24T09:28:01;12.10;44.20
1455;DHT22;721;48.168;12.818;2023-04-24T09:30:29;12.10;42.30
1455;DHT22;721;48.168;12.818;2023-04-24T09:33:12;12.20;51.80
1455;DHT22;721;48.168;12.818;2023-04-24T09:35:41;12.30;50.50
1455;DHT22;721;48.168;12.818;2023-04-24T09:38:08;12.40;47.40
1455;DHT22;721;48.168;12.818;2023-04-24T09:40:36;12.40;43.30
1455;DHT22;721;48.168;12.818;2023-04-24T09:43:03;12.40;45.60
1455;DHT22;721;48.168;12.818;2023-04-24T09:45:36;12.40;38.50
1455;DHT22;721;48.168;12.818;2023-04-24T09:48:03;12.80;39.20
1455;DHT22;721;48.168;12.818;2023-04-24T09:50:30;12.40;33.50
1455;DHT22;721;48.168;12.818;2023-04-24T09:53:02;12.40;37.70
1455;DHT22;721;48.168;12.818;2023-04-24T09:55:29;12.40;35.70
1455;DHT22;721;48.168;12.818;2023-04-24T09:57:58;12.30;33.30
1455;DHT22;721;48.168;12.818;2023-04-24T10:00:27;12.30;34.60
1455;DHT22;721;48.168;12.818;2023-04-24T10:02:55;12.30;34.30
1455;DHT22;721;48.168;12.818;2023-04-24T10:05:28;12.40;34.00
1455;DHT22;721;48.168;12.818;2023-04-24T10:08:00;12.60;31.40
1455;DHT22;721;48.168;12.818;2023-04-24T10:10:28;12.60;31.00
1455;DHT22;721;48.168;12.818;2023-04-24T10:12:57;12.60;31.70
1455;DHT22;721;48.168;12.818;2023-04-24T10:15:24;12.60;28.40
1455;DHT22;721;48.168;12.818;2023-04-24T10:17:52;12.50;30.00
1455;DHT22;721;48.168;12.818;2023-04-24T10:20:21;12.50;28.70
1455;DHT22;721;48.168;12.818;2023-04-24T10:22:49;12.60;32.20
1455;DHT22;721;48.168;12.818;2023-04-24T10:25:18;12.50;27.10
1455;DHT22;721;48.168;12.818;2023-04-24T10:27:46;11.90;37.30
1455;DHT22;721;48.168;12.818;2023-04-24T10:30:15;10.20;36.70
1455;DHT22;721;48.168;12.818;2023-04-24T10:32:42;9.70;50.10
1455;DHT22;721;48.168;12.818;2023-04-24T10:35:10;9.70;55.30
1455;DHT22;721;48.168;12.818;2023-04-24T10:37:41;9.50;54.00
1455;DHT22;721;48.168;12.818;2023-04-24T10:40:09;9.50;57.80
1455;DHT22;721;48.168;12.818;2023-04-24T10:42:40;9.40;57.30
1455;DHT22;721;48.168;12.818;2023-04-24T10:45:18;9.40;53.60
1455;DHT22;721;48.168;12.818;2023-04-24T10:47:53;9.40;56.00
1455;DHT22;721;48.168;12.818;2023-04-24T10:50:22;9.50;58.20
1455;DHT22;721;48.168;12.818;2023-04-24T10:52:50;9.50;59.70
1455;DHT22;721;48.168;12.818;2023-04-24T10:55:40;9.60;58.00
1455;DHT22;721;48.168;12.818;2023-04-24T10:58:07;9.80;54.10
1455;DHT22;721;48.168;12.818;2023-04-24T11:00:36;10.10;58.00
1455;DHT22;721;48.168;12.818;2023-04-24T11:03:05;10.30;54.40
1455;DHT22;721;48.168;12.818;2023-04-24T11:05:56;10.50;51.10
1455;DHT22;721;48.168;12.818;2023-04-24T11:08:29;10.70;55.10
1455;DHT22;721;48.168;12.818;2023-04-24T11:10:58;11.00;63.30
1455;DHT22;721;48.168;12.818;2023-04-24T11:13:26;11.20;62.30
1455;DHT22;721;48.168;12.818;2023-04-24T11:16:13;11.50;49.30
1455;DHT22;721;48.168;12.818;2023-04-24T11:18:42;11.80;54.20
1455;DHT22;721;48.168;12.818;2023-04-24T11:21:12;12.00;47.20
1455;DHT22;721;48.168;12.818;2023-04-24T11:23:39;12.30;47.30
1455;DHT22;721;48.168;12.818;2023-04-24T11:26:13;12.40;38.90
1455;DHT22;721;48.168;12.818;2023-04-24T11:28:47;12.60;38.00
1455;DHT22;721;48.168;12.818;2023-04-24T11:31:37;12.70;25.80
1455;DHT22;721;48.168;12.818;2023-04-24T11:34:09;12.50;26.70
1455;DHT22;721;48.168;12.818;2023-04-24T11:36:36;12.50;31.50
1455;DHT22;721;48.168;12.818;2023-04-24T11:39:03;12.50;26.40
1455;DHT22;721;48.168;12.818;2023-04-24T11:41:30;12.50;23.90
1455;DHT22;721;48.168;12.818;2023-04-24T11:43:57;12.60;26.90
1455;DHT22;721;48.168;12.818;2023-04-24T11:46:27;12.50;22.50
1455;DHT22;721;48.168;12.818;2023-04-24T11:48:56;12.60;18.40
1455;DHT22;721;48.168;12.818;2023-04-24T11:51:24;12.60;23.00
1455;DHT22;721;48.168;12.818;2023-04-24T11:53:52;12.70;24.30
1455;DHT22;721;48.168;12.818;2023-04-24T11:56:19;12.80;20.20
1455;DHT22;721;48.168;12.818;2023-04-24T11:58:46;12.80;18.80
1455;DHT22;721;48.168;12.818;2023-04-24T12:01:13;12.90;18.20
1455;DHT22;721;48.168;12.818;2023-04-24T12:03:40;13.00;16.70
1455;DHT22;721;48.168;12.818;2023-04-24T12:06:11;13.10;17.00
1455;DHT22;721;48.168;12.818;2023-04-24T12:08:38;13.20;14.70
1455;DHT22;721;48.168;12.818;2023-04-24T12:11:06;13.20;13.20
1455;DHT22;721;48.168;12.818;2023-04-24T12:13:34;13.30;10.60
1455;DHT22;721;48.168;12.818;2023-04-24T12:16:02;13.30;10.20
1455;DHT22;721;48.168;12.818;2023-04-24T12:18:30;13.10;6.30
1455;DHT22;721;48.168;12.818;2023-04-24T12:21:16;13.20;4.20
1455;DHT22;721;48.168;12.818;2023-04-24T12:23:44;13.20;7.00
1455;DHT22;721;48.168;12.818;2023-04-24T12:26:11;13.10;2.80
1455;DHT22;721;48.168;12.818;2023-04-24T12:28:38;13.20;7.30
1455;DHT22;721;48.168;12.818;2023-04-24T12:31:06;13.10;6.10
1455;DHT22;721;48.168;12.818;2023-04-24T12:33:35;13.10;4.00
1455;DHT22;721;48.168;12.818;2023-04-24T12:36:02;13.00;2.60
1455;DHT22;721;48.168;12.818;2023-04-24T12:38:30;12.80;5.00
1455;DHT22;721;48.168;12.818;2023-04-24T12:41:06;12.40;13.90
1455;DHT22;721;48.168;12.818;2023-04-24T12:43:33;11.90;12.90
1455;DHT22;721;48.168;12.818;2023-04-24T12:46:00;11.60;17.40
1455;DHT22;721;48.168;12.818;2023-04-24T12:48:27;11.20;17.00
1455;DHT22;721;48.168;12.818;2023-04-24T12:50:54;11.60;21.90
1455;DHT22;721;48.168;12.818;2023-04-24T12:53:22;11.00;21.60
1455;DHT22;721;48.168;12.818;2023-04-24T12:55:53;11.00;21.90
1455;DHT22;721;48.168;12.818;2023-04-24T12:58:20;11.10;23.50
1455;DHT22;721;48.168;12.818;2023-04-24T13:00:47;11.20;22.80
1455;DHT22;721;48.168;12.818;2023-04-24T13:03:14;11.30;19.70
1455;DHT22;721;48.168;12.818;2023-04-24T13:05:42;11.30;21.20
1455;DHT22;721;48.168;12.818;2023-04-24T13:08:09;11.50;20.70
1455;DHT22;721;48.168;12.818;2023-04-24T13:10:36;11.30;19.60
1455;DHT22;721;48.168;12.818;2023-04-24T13:13:04;11.50;19.80
1455;DHT22;721;48.168;12.818;2023-04-24T13:15:31;11.60;18.70
1455;DHT22;721;48.168;12.818;2023-04-24T13:17:58;11.70;18.00
1455;DHT22;721;48.168;12.818;2023-04-24T13:20:25;11.70;19.90
1455;DHT22;721;48.168;12.818;2023-04-24T13:22:52;11.80;19.70
1455;DHT22;721;48.168;12.818;2023-04-24T13:25:19;11.90;17.20
1455;DHT22;721;48.168;12.818;2023-04-24T13:27:48;11.90;19.20
1455;DHT22;721;48.168;12.818;2023-04-24T13:30:16;12.10;19.00
1455;DHT22;721;48.168;12.818;2023-04-24T13:32:43;12.30;16.10
1455;DHT22;721;48.168;12.818;2023-04-24T13:35:10;12.40;18.10
1455;DHT22;721;48.168;12.818;2023-04-24T13:37:37;12.50;12.30
1455;DHT22;721;48.168;12.818;2023-04-24T13:40:05;12.70;15.10
1455;DHT22;721;48.168;12.818;2023-04-24T13:42:32;12.90;10.30
1455;DHT22;721;48.168;12.818;2023-04-24T13:44:59;13.00;5.90
1455;DHT22;721;48.168;12.818;2023-04-24T13:47:27;13.10;7.00
1455;DHT22;721;48.168;12.818;2023-04-24T13:49:54;13.40;6.90
1455;DHT22;721;48.168;12.818;2023-04-24T13:52:21;13.60;5.50
1455;DHT22;721;48.168;12.818;2023-04-24T13:54:48;13.70;2.40
1455;DHT22;721;48.168;12.818;2023-04-24T13:57:15;13.60;2.30
1455;DHT22;721;48.168;12.818;2023-04-24T13:59:42;13.50;1.00
1455;DHT22;721;48.168;12.818;2023-04-24T14:02:09;13.60;1.20
1455;DHT22;721;48.168;12.818;2023-04-24T14:04:37;13.50;2.10
1455;DHT22;721;48.168;12.818;2023-04-24T14:07:04;13.70;2.10
1455;DHT22;721;48.168;12.818;2023-04-24T14:09:31;13.60;2.40
1455;DHT22;721;48.168;12.818;2023-04-24T14:11:58;13.70;3.50
1455;DHT22;721;48.168;12.818;2023-04-24T14:14:26;13.70;4.00
1455;DHT22;721;48.168;12.818;2023-04-24T14:16:55;13.50;1.40
1455;DHT22;721;48.168;12.818;2023-04-24T14:19:22;13.40;2.70
1455;DHT22;721;48.168;12.818;2023-04-24T14:21:50;13.40;2.80
1455;DHT22;721;48.168;12.818;2023-04-24T14:24:18;13.40;5.40
1455;DHT22;721;48.168;12.818;2023-04-24T14:26:45;13.30;7.90
1455;DHT22;721;48.168;12.818;2023-04-24T14:29:12;13.00;9.60
1455;DHT22;721;48.168;12.818;2023-04-24T14:31:39;12.70;11.10
1455;DHT22;721;48.168;12.818;2023-04-24T14:34:05;12.60;15.00
1455;DHT22;721;48.168;12.818;2023-04-24T14:36:32;12.30;20.40
1455;DHT22;721;48.168;12.818;2023-04-24T14:39:00;12.50;23.40
1455;DHT22;721;48.168;12.818;2023-04-24T14:41:31;11.80;24.00
1455;DHT22;721;48.168;12.818;2023-04-24T14:43:59;11.80;27.90
1455;DHT22;721;48.168;12.818;2023-04-24T14:46:25;11.60;28.90
1455;DHT22;721;48.168;12.818;2023-04-24T14:48:52;11.50;32.80
1455;DHT22;721;48.168;12.818;2023-04-24T14:51:19;11.50;33.40
1455;DHT22;721;48.168;12.818;2023-04-24T14:53:46;11.40;37.30
1455;DHT22;721;48.168;12.818;2023-04-24T14:56:15;11.30;34.90
1455;DHT22;721;48.168;12.818;2023-04-24T14:58:42;11.20;35.30
1455;DHT22;721;48.168;12.818;2023-04-24T15:01:08;11.20;37.20
1455;DHT22;721;48.168;12.818;2023-04-24T15:03:35;11.10;36.50
1455;DHT22;721;48.168;12.818;2023-04-24T15:06:02;11.00;39.10
1455;DHT22;721;48.168;12.818;2023-04-24T15:08:29;11.10;43.60
1455;DHT22;721;48.168;12.818;2023-04-24T15:10:56;11.10;40.70
1455;DHT22;721;48.168;12.818;2023-04-24T15:13:24;11.10;43.80
1455;DHT22;721;48.168;12.818;2023-04-24T15:15:51;11.20;46.80
1455;DHT22;721;48.168;12.818;2023-04-24T15:18:18;11.20;45.30
1455;DHT22;721;48.168;12.818;2023-04-24T15:20:44;11.20;45.80
1455;DHT22;721;48.168;12.818;2023-04-24T15:23:11;11.70;41.90
1455;DHT22;721;48.168;12.818;2023-04-24T15:25:38;11.30;36.70
1455;DHT22;721;48.168;12.818;2023-04-24T15:28:05;11.30;37.10
1455;DHT22;721;48.168;12.818;2023-04-24T15:30:33;11.30;35.90
1455;DHT22;721;48.168;12.818;2023-04-24T15:33:01;11.50;41.80
1455;DHT22;721;48.168;12.818;2023-04-24T15:35:27;11.50;37.00
1455;DHT22;721;48.168;12.818;2023-04-24T15:37:54;11.70;37.90
1455;DHT22;721;48.168;12.818;2023-04-24T15:40:21;11.60;30.30
1455;DHT22;721;48.168;12.818;2023-04-24T15:42:48;11.80;30.80
1455;DHT22;721;48.168;12.818;2023-04-24T15:45:15;11.50;29.70
1455;DHT22;721;48.168;12.818;2023-04-24T15:47:45;11.40;28.80
1455;DHT22;721;48.168;12.818;2023-04-24T15:50:12;11.20;30.30
1455;DHT22;721;48.168;12.818;2023-04-24T15:52:41;11.30;29.10
1455;DHT22;721;48.168;12.818;2023-04-24T15:55:09;11.20;31.20
1455;DHT22;721;48.168;12.818;2023-04-24T15:57:35;11.10;32.80
1455;DHT22;721;48.168;12.818;2023-04-24T16:00:03;11.10;28.40
1455;DHT22;721;48.168;12.818;2023-04-24T16:02:31;11.10;29.50
1455;DHT22;721;48.168;12.818;2023-04-24T16:05:00;11.10;31.00